Time;durP1;ratioP1;P1;durP2;ratioP2;P2;SDS_P1;SDS_P2;PMS_P1;PMS_P2;Temp;Humidity;BMP_temperature;BMP_pressure;BME280_temperature;BME280_humidity;BME280_pressure;Samples;Min_cycle;Max_cycle;Signal;HPM_P1;HPM_P2
2022/03/17 00:00:24;;;;;;;;;;;;;;;22.12;38.57;101722.16;5048674;28;20050;-83
2022/03/17 00:02:49;;;;;;;;;;;;;;;22.12;38.54;101711.94;5050245;28;20395;-85
2022/03/17 00:05:17;;;;;;;;;;;;;;;22.12;38.70;101722.16;5020929;28;19945;-85
2022/03/17 00:07:43;;;;;;;;;;;;;;;22.12;38.75;101716.66;5033154;28;19931;-85
2022/03/17 00:10:10;;;;;;;;;;;;;;;22.11;38.85;101715.84;5029399;28;19932;-85
2022/03/17 00:12:35;;;;;;;;;;;;;;;22.11;38.71;101718.59;5036345;28;20011;-86
2022/03/17 00:15:01;;;;;;;;;;;;;;;22.12;38.84;101719.41;5034893;28;20384;-86
2022/03/17 00:17:26;;;;;;;;;;;;;;;22.11;38.59;101713.06;5069853;28;20033;-85
2022/03/17 00:19:52;;;;;;;;;;;;;;;22.11;38.73;101718.59;5020352;28;20453;-85
2022/03/17 00:22:18;;;;;;;;;;;;;;;22.10;38.91;101714.22;5036819;28;19948;-86
2022/03/17 00:24:43;;;;;;;;;;;;;;;22.09;38.56;101715.31;5069144;28;19988;-85
2022/03/17 00:27:09;;;;;;;;;;;;;;;22.10;38.71;101721.63;5037135;28;19992;-86
2022/03/17 00:29:35;;;;;;;;;;;;;;;22.10;38.62;101718.88;5051133;28;19939;-86
2022/03/17 00:32:01;;;;;;;;;;;;;;;22.09;38.55;101718.06;5018796;28;20351;-85
2022/03/17 00:34:26;;;;;;;;;;;;;;;22.09;38.81;101720.00;5051785;28;20020;-86
2022/03/17 00:36:51;;;;;;;;;;;;;;;22.09;38.55;101720.00;5020018;28;19965;-86
2022/03/17 00:39:17;;;;;;;;;;;;;;;22.08;38.51;101721.94;5069526;28;20015;-86
2022/03/17 00:41:43;;;;;;;;;;;;;;;22.07;38.70;101730.47;5069631;28;19925;-85
2022/03/17 00:44:09;;;;;;;;;;;;;;;22.07;38.75;101733.22;5029999;28;19918;-85
2022/03/17 00:46:34;;;;;;;;;;;;;;;22.06;38.54;101737.91;5027951;28;20028;-90
2022/03/17 00:48:59;;;;;;;;;;;;;;;22.05;38.81;101739.03;5031660;28;19943;-86
2022/03/17 00:51:25;;;;;;;;;;;;;;;22.06;38.83;101735.16;5036590;28;19924;-87
2022/03/17 00:53:50;;;;;;;;;;;;;;;22.06;38.64;101731.59;5053016;28;20425;-86
2022/03/17 00:56:15;;;;;;;;;;;;;;;22.04;38.50;101732.69;5033349;28;20011;-86
2022/03/17 00:58:45;;;;;;;;;;;;;;;22.03;38.53;101725.56;5044973;28;19964;-86
2022/03/17 01:01:11;;;;;;;;;;;;;;;22.02;38.47;101729.44;5046462;28;19954;-86
2022/03/17 01:03:36;;;;;;;;;;;;;;;22.02;38.49;101732.19;5057102;28;20274;-87
2022/03/17 01:06:01;;;;;;;;;;;;;;;22.02;38.53;101723.09;5033263;28;20384;-86
2022/03/17 01:08:27;;;;;;;;;;;;;;;22.02;38.43;101725.84;5052496;28;20056;-86
2022/03/17 01:10:52;;;;;;;;;;;;;;;22.01;38.70;101724.22;5018975;28;20355;-86
2022/03/17 01:13:18;;;;;;;;;;;;;;;22.01;38.27;101730.53;5032254;28;19921;-85
2022/03/17 01:15:43;;;;;;;;;;;;;;;22.01;38.71;101735.22;5042607;28;19921;-86
2022/03/17 01:18:08;;;;;;;;;;;;;;;22.00;38.40;101734.41;5052594;28;20487;-85
2022/03/17 01:20:33;;;;;;;;;;;;;;;22.00;38.58;101722.59;5039046;28;19928;-86
2022/03/17 01:23:00;;;;;;;;;;;;;;;21.99;38.63;101712.69;5038491;28;19921;-87
2022/03/17 01:25:25;;;;;;;;;;;;;;;22.00;38.60;101728.09;5033059;28;19921;-87
2022/03/17 01:27:50;;;;;;;;;;;;;;;21.98;38.71;101727.59;5031631;28;19921;-83
2022/03/17 01:30:17;;;;;;;;;;;;;;;21.97;38.46;101729.53;5051874;28;19925;-83
2022/03/17 01:32:43;;;;;;;;;;;;;;;21.97;38.72;101735.03;5052165;28;20305;-83
2022/03/17 01:35:08;;;;;;;;;;;;;;;21.97;38.72;101734.19;5053896;28;20450;-84
2022/03/17 01:37:34;;;;;;;;;;;;;;;21.96;38.63;101740.81;5020411;28;19986;-82
2022/03/17 01:39:59;;;;;;;;;;;;;;;21.95;38.74;101745.50;5035210;28;19983;-83
2022/03/17 01:42:28;;;;;;;;;;;;;;;21.95;38.40;101748.25;5069110;28;20016;-86
2022/03/17 01:44:54;;;;;;;;;;;;;;;21.95;38.48;101747.44;5036720;28;19917;-86
2022/03/17 01:47:29;;;;;;;;;;;;;;;21.94;38.42;101745.78;5042076;28;19954;-86
2022/03/17 01:50:03;;;;;;;;;;;;;;;21.94;38.46;101738.34;5046100;28;19996;-84
2022/03/17 01:52:28;;;;;;;;;;;;;;;21.93;38.41;101747.72;5020864;28;20011;-86
2022/03/17 01:54:54;;;;;;;;;;;;;;;21.93;38.48;101742.22;5022584;28;20015;-86
2022/03/17 01:57:20;;;;;;;;;;;;;;;21.92;38.64;101737.81;5052171;28;19925;-86
2022/03/17 01:59:47;;;;;;;;;;;;;;;21.92;38.63;101740.56;5051742;28;19938;-84
2022/03/17 02:02:12;;;;;;;;;;;;;;;21.93;38.50;101744.16;5051009;28;19938;-84
2022/03/17 02:04:40;;;;;;;;;;;;;;;21.92;38.74;101754.31;5038580;28;20452;-84
2022/03/17 02:07:06;;;;;;;;;;;;;;;21.92;38.56;101759.81;5032193;28;19917;-84
2022/03/17 02:09:32;;;;;;;;;;;;;;;21.91;38.50;101758.19;5038129;28;20499;-83
2022/03/17 02:14:53;;;;;;;;;;;;;;;21.91;38.57;101757.38;5052797;28;19947;-88
2022/03/17 02:17:19;;;;;;;;;;;;;;;21.90;38.50;101756.56;5033545;28;20252;-83
2022/03/17 02:19:45;;;;;;;;;;;;;;;21.90;38.44;101758.47;5039334;28;19989;-85
2022/03/17 02:22:11;;;;;;;;;;;;;;;21.90;38.71;101766.72;5044085;28;19950;-84
2022/03/17 02:27:21;;;;;;;;;;;;;;;21.88;38.63;101782.72;5034946;28;20008;-84
2022/03/17 02:29:46;;;;;;;;;;;;;;;21.89;38.37;101793.41;5067835;28;20012;-84
2022/03/17 02:32:12;;;;;;;;;;;;;;;21.88;38.72;101805.53;5065688;28;20002;-85
2022/03/17 02:34:38;;;;;;;;;;;;;;;21.88;38.57;101812.97;5038931;28;19950;-87
2022/03/17 02:37:03;;;;;;;;;;;;;;;21.87;38.60;101828.63;5066253;28;20354;-84
2022/03/17 02:39:29;;;;;;;;;;;;;;;21.86;38.44;101827.00;5033067;28;19975;-86
2022/03/17 02:41:55;;;;;;;;;;;;;;;21.88;38.76;101837.75;5031373;28;19951;-84
2022/03/17 02:44:20;;;;;;;;;;;;;;;21.86;38.32;101838.03;5045639;28;19924;-84
2022/03/17 02:46:46;;;;;;;;;;;;;;;21.86;38.47;101845.47;5047136;28;19929;-84
2022/03/17 02:49:15;;;;;;;;;;;;;;;21.86;38.46;101853.72;5050062;28;20442;-84
2022/03/17 02:51:40;;;;;;;;;;;;;;;21.85;38.35;101850.16;5047412;28;19946;-85
2022/03/17 02:54:05;;;;;;;;;;;;;;;21.85;38.40;101855.66;5033357;28;19941;-84
2022/03/17 02:56:32;;;;;;;;;;;;;;;21.85;38.73;101857.56;5056944;28;19932;-84
2022/03/17 02:58:57;;;;;;;;;;;;;;;21.85;38.47;101868.56;5051696;28;20007;-84
2022/03/17 03:01:22;;;;;;;;;;;;;;;21.83;38.41;101863.38;5052194;28;20056;-84
2022/03/17 03:03:48;;;;;;;;;;;;;;;21.83;38.61;101879.88;5051066;28;19933;-84
2022/03/17 03:06:14;;;;;;;;;;;;;;;21.82;38.25;101876.31;5052876;28;20315;-85
2022/03/17 03:08:39;;;;;;;;;;;;;;;21.83;38.74;101882.63;5067647;28;19949;-84
2022/03/17 03:11:04;;;;;;;;;;;;;;;21.82;38.40;101887.31;5051754;28;19972;-84
2022/03/17 03:13:29;;;;;;;;;;;;;;;21.81;38.82;101890.34;5067351;28;19932;-84
2022/03/17 03:15:55;;;;;;;;;;;;;;;21.81;38.61;101891.16;5049810;28;19925;-84
2022/03/17 03:18:20;;;;;;;;;;;;;;;21.81;38.51;101904.09;5067030;28;19931;-84
2022/03/17 03:20:45;;;;;;;;;;;;;;;21.80;38.45;101916.22;5050936;28;19928;-84
2022/03/17 03:23:11;;;;;;;;;;;;;;;21.81;38.46;101928.84;5033921;28;19954;-84
2022/03/17 03:25:36;;;;;;;;;;;;;;;21.81;38.59;101945.34;5044102;28;19929;-83
2022/03/17 03:28:08;;;;;;;;;;;;;;;21.79;38.55;101945.63;5032474;28;19953;-85
2022/03/17 03:30:33;;;;;;;;;;;;;;;21.79;38.38;101956.63;5034463;28;19920;-83
2022/03/17 03:32:59;;;;;;;;;;;;;;;21.78;38.62;101960.50;5067193;28;19925;-83
2022/03/17 03:38:08;;;;;;;;;;;;;;;21.79;38.42;101977.81;5049610;28;19928;-83
2022/03/17 03:40:33;;;;;;;;;;;;;;;21.78;38.68;101990.75;5062705;28;19921;-84
2022/03/17 03:42:58;;;;;;;;;;;;;;;21.78;38.62;101989.94;5045758;28;19931;-84
2022/03/17 03:45:24;;;;;;;;;;;;;;;21.78;38.31;101998.19;5038126;28;19917;-84
2022/03/17 03:47:49;;;;;;;;;;;;;;;21.78;38.27;102003.69;5055197;28;20339;-83
2022/03/17 03:50:14;;;;;;;;;;;;;;;21.77;38.56;102011.13;5054057;28;20064;-84
2022/03/17 03:52:39;;;;;;;;;;;;;;;21.77;38.42;102011.13;5039400;28;19939;-84
2022/03/17 03:55:05;;;;;;;;;;;;;;;21.76;38.49;102014.97;5050833;28;20369;-85
2022/03/17 03:57:30;;;;;;;;;;;;;;;21.76;38.53;102022.41;5045771;28;20361;-84
2022/03/17 03:59:55;;;;;;;;;;;;;;;21.76;38.49;102027.91;5070053;28;19946;-84
2022/03/17 04:02:21;;;;;;;;;;;;;;;21.76;38.42;102036.16;5044144;28;20409;-84
2022/03/17 04:04:46;;;;;;;;;;;;;;;21.75;38.38;102045.50;5032220;28;19928;-84
2022/03/17 04:07:11;;;;;;;;;;;;;;;21.75;38.45;102049.09;5051374;28;19944;-86
2022/03/17 04:09:39;;;;;;;;;;;;;;;21.74;38.27;102055.66;5036154;28;20022;-85
2022/03/17 04:12:05;;;;;;;;;;;;;;;21.73;38.50;102065.03;5022464;28;19916;-84
2022/03/17 04:14:31;;;;;;;;;;;;;;;21.73;38.63;102080.72;5050032;28;19925;-84
2022/03/17 04:16:59;;;;;;;;;;;;;;;21.72;38.37;102088.16;5036232;28;19921;-84
2022/03/17 04:19:25;;;;;;;;;;;;;;;21.73;38.53;102097.22;5047963;28;19978;-85
2022/03/17 04:21:50;;;;;;;;;;;;;;;21.72;38.29;102106.56;5034514;28;20450;-84
2022/03/17 04:24:16;;;;;;;;;;;;;;;21.72;38.30;102123.06;5047791;28;20049;-86
2022/03/17 04:26:41;;;;;;;;;;;;;;;21.72;38.16;102123.06;5050618;28;19991;-85
2022/03/17 04:29:07;;;;;;;;;;;;;;;21.71;38.15;102133.25;5036375;28;20036;-84
2022/03/17 04:31:33;;;;;;;;;;;;;;;21.71;38.36;102140.69;5043562;28;19932;-84
2022/03/17 04:33:59;;;;;;;;;;;;;;;21.70;38.15;102137.13;5045551;28;19950;-84
2022/03/17 04:36:24;;;;;;;;;;;;;;;21.70;38.28;102145.38;5029520;28;20349;-84
2022/03/17 04:38:49;;;;;;;;;;;;;;;21.70;38.46;102152.81;5055216;28;20423;-85
2022/03/17 04:41:17;;;;;;;;;;;;;;;21.69;38.46;102156.66;5069791;28;19991;-84
2022/03/17 04:43:42;;;;;;;;;;;;;;;21.69;38.21;102159.41;5064472;28;19970;-85
2022/03/17 04:46:08;;;;;;;;;;;;;;;21.69;38.47;102162.16;5049085;28;19925;-84
2022/03/17 04:48:33;;;;;;;;;;;;;;;21.68;38.41;102185.25;5036560;28;19925;-84
2022/03/17 04:50:58;;;;;;;;;;;;;;;21.67;38.18;102192.69;5068527;28;19979;-85
2022/03/17 04:53:27;;;;;;;;;;;;;;;21.68;38.09;102196.25;5033354;28;20315;-85
2022/03/17 04:55:52;;;;;;;;;;;;;;;21.67;38.34;102202.84;5068333;28;19982;-84
2022/03/17 04:58:18;;;;;;;;;;;;;;;21.67;38.49;102208.34;5033274;28;19990;-84
2022/03/17 05:00:43;;;;;;;;;;;;;;;21.66;38.04;102224.03;5059875;28;19990;-85
2022/03/17 05:03:09;;;;;;;;;;;;;;;21.65;38.45;102225.16;5017090;28;19934;-85
2022/03/17 05:05:34;;;;;;;;;;;;;;;21.65;38.03;102224.34;5036161;28;19971;-84
2022/03/17 05:07:59;;;;;;;;;;;;;;;21.66;38.13;102231.47;5061837;28;20296;-85
2022/03/17 05:10:25;;;;;;;;;;;;;;;21.64;38.39;102237.22;5052534;28;19972;-84
2022/03/17 05:12:50;;;;;;;;;;;;;;;21.64;38.23;102242.72;5058245;28;19944;-84
2022/03/17 05:15:16;;;;;;;;;;;;;;;21.64;38.27;102250.16;5053480;28;19943;-85
2022/03/17 05:17:42;;;;;;;;;;;;;;;21.63;38.33;102254.84;5039653;28;19920;-85
2022/03/17 05:20:11;;;;;;;;;;;;;;;21.62;38.29;102255.97;5051547;28;19969;-85
2022/03/17 05:22:36;;;;;;;;;;;;;;;21.63;38.12;102270.53;5035201;28;19954;-85
2022/03/17 05:25:04;;;;;;;;;;;;;;;21.63;37.99;102270.53;5052528;28;19921;-85
2022/03/17 05:27:30;;;;;;;;;;;;;;;21.61;38.25;102266.13;5068662;28;20405;-84
2022/03/17 05:29:55;;;;;;;;;;;;;;;21.61;37.87;102284.53;5037279;28;19944;-85
2022/03/17 05:32:20;;;;;;;;;;;;;;;21.60;38.05;102297.47;5051334;28;19949;-85
2022/03/17 05:34:46;;;;;;;;;;;;;;;21.60;38.00;102302.16;5035942;28;20428;-85
2022/03/17 05:37:11;;;;;;;;;;;;;;;21.60;38.29;102307.66;5067234;28;19925;-85
2022/03/17 05:39:36;;;;;;;;;;;;;;;21.59;38.01;102317.00;5045560;28;20054;-84
2022/03/17 05:42:02;;;;;;;;;;;;;;;21.58;38.17;102326.34;5057840;28;19973;-84
2022/03/17 05:44:27;;;;;;;;;;;;;;;21.59;38.21;102334.31;5051885;28;19969;-85
2022/03/17 05:46:52;;;;;;;;;;;;;;;21.58;37.87;102331.84;5068550;28;20327;-83
2022/03/17 05:49:19;;;;;;;;;;;;;;;21.58;38.15;102342.84;5068139;28;19921;-84
2022/03/17 05:51:44;;;;;;;;;;;;;;;21.56;38.02;102343.13;5051633;28;19921;-84
2022/03/17 05:54:10;;;;;;;;;;;;;;;21.56;37.86;102347.81;5031240;28;19917;-78
2022/03/17 05:56:35;;;;;;;;;;;;;;;21.55;38.17;102362.66;5052477;28;19932;-85
2022/03/17 05:59:00;;;;;;;;;;;;;;;21.55;38.17;102363.47;5041817;28;19952;-83
2022/03/17 06:01:26;;;;;;;;;;;;;;;21.55;38.03;102373.66;5068800;28;19989;-85
2022/03/17 06:03:51;;;;;;;;;;;;;;;21.54;38.27;102375.56;5035224;28;19939;-87
2022/03/17 06:06:16;;;;;;;;;;;;;;;21.54;37.93;102378.31;5051066;28;20361;-85
2022/03/17 06:08:42;;;;;;;;;;;;;;;21.55;38.10;102384.66;5069761;28;20021;-84
2022/03/17 06:11:07;;;;;;;;;;;;;;;21.54;38.28;102389.31;5035630;28;20421;-86
2022/03/17 06:13:32;;;;;;;;;;;;;;;21.55;38.22;102393.72;5035585;28;19975;-88
2022/03/17 06:15:57;;;;;;;;;;;;;;;21.56;38.18;102397.28;5046344;28;19918;-89
2022/03/17 06:18:23;;;;;;;;;;;;;;;21.56;38.09;102406.38;5059090;28;20321;-83
2022/03/17 06:20:48;;;;;;;;;;;;;;;21.56;38.08;102398.13;5019276;28;20376;-86
2022/03/17 06:23:18;;;;;;;;;;;;;;;21.56;38.26;102411.88;5032521;28;20029;-86
2022/03/17 06:26:05;;;;;;;;;;;;;;;21.57;38.08;102419.03;5047684;28;19951;-87
2022/03/17 06:28:34;;;;;;;;;;;;;;;21.56;38.18;102427.53;5032936;28;19943;-88
2022/03/17 06:31:09;;;;;;;;;;;;;;;21.56;38.19;102428.38;5048912;28;19942;-89
2022/03/17 06:33:34;;;;;;;;;;;;;;;21.56;38.45;102438.53;5024743;28;19943;-89
2022/03/17 06:36:00;;;;;;;;;;;;;;;21.56;38.53;102446.78;5059325;28;19921;-89
2022/03/17 06:38:25;;;;;;;;;;;;;;;21.56;38.41;102450.34;5045698;28;19921;-88
2022/03/17 06:40:50;;;;;;;;;;;;;;;21.56;38.49;102458.59;5039879;28;19964;-87
2022/03/17 06:43:18;;;;;;;;;;;;;;;21.57;38.48;102464.94;5052714;28;19931;-87
2022/03/17 06:45:46;;;;;;;;;;;;;;;21.58;38.60;102458.34;5020243;28;20451;-86
2022/03/17 06:48:11;;;;;;;;;;;;;;;21.57;38.26;102465.78;5037760;28;19950;-87
2022/03/17 06:50:36;;;;;;;;;;;;;;;21.57;38.66;102474.03;5038821;28;19925;-86
2022/03/17 06:53:02;;;;;;;;;;;;;;;21.56;38.56;102482.53;5015411;28;19938;-87
2022/03/17 06:55:37;;;;;;;;;;;;;;;;;;;;;
2022/03/17 06:58:08;;;;;;;;;;;;;;;21.56;38.39;102493.53;5044518;28;19966;-94
2022/03/17 07:00:34;;;;;;;;;;;;;;;21.56;38.42;102499.03;5047865;28;19937;-84
2022/03/17 07:02:59;;;;;;;;;;;;;;;21.56;38.65;102501.78;5025202;28;19967;-85
2022/03/17 07:05:24;;;;;;;;;;;;;;;21.55;38.62;102505.66;5034216;28;19968;-86
2022/03/17 07:07:50;;;;;;;;;;;;;;;21.54;38.40;102499.28;5028603;28;20314;-88
2022/03/17 07:10:18;;;;;;;;;;;;;;;21.54;38.38;102509.47;5037414;28;19925;-86
2022/03/17 07:12:44;;;;;;;;;;;;;;;21.54;38.31;102526.78;5050725;28;20011;-86
2022/03/17 07:15:10;;;;;;;;;;;;;;;21.54;38.36;102525.97;5051572;28;20050;-83
2022/03/17 07:17:39;;;;;;;;;;;;;;;21.54;38.56;102535.03;5034055;28;19921;-85
2022/03/17 07:20:05;;;;;;;;;;;;;;;21.53;38.48;102543.59;5054923;28;20376;-85
2022/03/17 07:22:30;;;;;;;;;;;;;;;21.52;38.66;102541.91;5031816;28;20406;-84
2022/03/17 07:24:56;;;;;;;;;;;;;;;21.52;38.49;102541.91;5067066;28;19920;-86
2022/03/17 07:27:21;;;;;;;;;;;;;;;21.53;38.56;102540.84;5032973;28;19943;-85
2022/03/17 07:29:47;;;;;;;;;;;;;;;21.53;38.72;102560.09;5050388;28;19975;-86
2022/03/17 07:32:12;;;;;;;;;;;;;;;21.53;38.75;102565.59;5029691;28;19921;-86
2022/03/17 07:34:37;;;;;;;;;;;;;;;21.53;38.68;102574.66;5031006;28;19983;-87
2022/03/17 07:37:05;;;;;;;;;;;;;;;21.53;38.70;102573.81;5032341;28;19932;-85
2022/03/17 07:39:30;;;;;;;;;;;;;;;21.53;38.76;102579.31;5048485;28;19924;-84
2022/03/17 07:41:56;;;;;;;;;;;;;;;21.52;38.80;102584.00;5047644;28;19925;-86
2022/03/17 07:44:21;;;;;;;;;;;;;;;21.53;38.57;102584.81;5030313;28;20292;-92
2022/03/17 07:46:48;;;;;;;;;;;;;;;21.52;38.79;102596.91;5031981;28;20284;-85
2022/03/17 07:49:13;;;;;;;;;;;;;;;21.51;38.92;102595.25;5048237;28;20507;-84
2022/03/17 07:51:39;;;;;;;;;;;;;;;21.51;38.55;102598.84;5031462;28;20003;-86
2022/03/17 07:54:04;;;;;;;;;;;;;;;21.51;38.90;102607.09;5054898;28;20040;-82
2022/03/17 07:56:30;;;;;;;;;;;;;;;21.52;38.70;102624.41;5037236;28;20019;-89
2022/03/17 07:58:55;;;;;;;;;;;;;;;21.52;38.99;102618.91;5027338;28;19953;-88
2022/03/17 08:01:24;;;;;;;;;;;;;;;21.52;38.80;102632.66;5057287;28;20284;-87
2022/03/17 08:03:50;;;;;;;;;;;;;;;21.52;38.75;102639.00;5032965;28;19939;-88
2022/03/17 08:06:15;;;;;;;;;;;;;;;21.52;38.95;102641.75;5050033;28;20043;-92
2022/03/17 08:08:41;;;;;;;;;;;;;;;21.53;38.83;102656.31;5065468;28;20462;-91
2022/03/17 08:11:07;;;;;;;;;;;;;;;21.52;38.73;102657.41;5048652;28;20406;-91
2022/03/17 08:13:32;;;;;;;;;;;;;;;21.50;38.81;102665.13;5018633;28;19938;-91
2022/03/17 08:15:57;;;;;;;;;;;;;;;21.48;38.68;102661.81;5013515;28;20036;-92
2022/03/17 08:18:24;;;;;;;;;;;;;;;21.48;38.58;102670.03;5047000;28;19955;-91
2022/03/17 08:20:49;;;;;;;;;;;;;;;21.47;38.63;102674.72;5044947;28;19950;-91
2022/03/17 08:23:21;;;;;;;;;;;;;;;21.45;38.39;102663.16;5039837;28;19920;-91
2022/03/17 08:25:48;;;;;;;;;;;;;;;21.44;38.59;102672.50;5057852;28;19938;-89
2022/03/17 08:28:18;;;;;;;;;;;;;;;21.43;38.42;102679.09;5055598;28;19970;-89
2022/03/17 08:30:46;;;;;;;;;;;;;;;21.42;38.27;102687.59;5068416;28;19920;-89
2022/03/17 08:33:14;;;;;;;;;;;;;;;21.39;38.29;102692.56;5074261;28;19920;-90
2022/03/17 08:35:40;;;;;;;;;;;;;;;21.37;38.35;102697.47;5033227;28;20385;-91
2022/03/17 08:38:05;;;;;;;;;;;;;;;21.37;38.10;102711.22;5064727;28;19924;-90
2022/03/17 08:40:31;;;;;;;;;;;;;;;21.34;38.04;102711.75;5050186;28;19954;-90
2022/03/17 08:42:56;;;;;;;;;;;;;;;21.35;38.11;102720.81;5054498;28;20024;-88
2022/03/17 08:50:49;;;;;;;;;;;;;;;21.29;37.96;102736.47;5037470;28;20379;-90
2022/03/17 08:53:14;;;;;;;;;;;;;;;21.29;37.98;102743.88;5043903;28;19933;-89
2022/03/17 08:55:40;;;;;;;;;;;;;;;21.27;37.86;102738.66;5053418;28;19946;-89
2022/03/17 08:58:06;;;;;;;;;;;;;;;21.27;37.90;102746.06;5037675;28;20398;-91
2022/03/17 09:00:34;;;;;;;;;;;;;;;21.25;38.00;102742.75;5047608;28;20004;-90
2022/03/17 09:03:01;;;;;;;;;;;;;;;21.23;37.68;102755.94;5049730;28;19920;-89
2022/03/17 09:05:27;;;;;;;;;;;;;;;21.21;37.66;102758.94;5039320;28;19938;-89
2022/03/17 09:07:52;;;;;;;;;;;;;;;21.20;37.69;102770.22;5053295;28;19921;-89
2022/03/17 09:10:18;;;;;;;;;;;;;;;21.19;37.76;102769.38;5067852;28;19925;-89
2022/03/17 09:12:43;;;;;;;;;;;;;;;21.16;37.57;102772.66;5058645;28;19979;-89
2022/03/17 09:15:11;;;;;;;;;;;;;;;21.14;37.71;102778.44;5063876;28;19955;-91
2022/03/17 09:17:39;;;;;;;;;;;;;;;21.12;37.64;102783.34;5046467;28;20075;-90
2022/03/17 09:20:08;;;;;;;;;;;;;;;21.10;37.72;102777.28;5053802;28;20320;-91
2022/03/17 09:22:34;;;;;;;;;;;;;;;21.09;37.46;102792.13;5019685;28;19940;-91
2022/03/17 09:24:59;;;;;;;;;;;;;;;21.07;37.37;102780.56;5034769;28;19928;-92
2022/03/17 09:27:25;;;;;;;;;;;;;;;21.05;37.50;102785.50;5059032;28;19950;-91
2022/03/17 09:29:50;;;;;;;;;;;;;;;21.03;37.38;102787.69;5048898;28;20372;-90
2022/03/17 09:32:20;;;;;;;;;;;;;;;21.02;37.11;102802.53;5068554;28;19950;-91
2022/03/17 09:34:45;;;;;;;;;;;;;;;21.00;37.28;102798.38;5035414;28;19934;-89
2022/03/17 09:37:10;;;;;;;;;;;;;;;20.98;37.12;102804.13;5057880;28;20483;-91
2022/03/17 09:39:48;;;;;;;;;;;;;;;20.95;37.32;102813.72;5042267;28;19928;-91
2022/03/17 09:42:14;;;;;;;;;;;;;;;20.95;37.23;102823.88;5034672;28;19912;-91
2022/03/17 09:44:40;;;;;;;;;;;;;;;20.93;37.16;102812.34;5034021;28;19935;-92
2022/03/17 09:47:08;;;;;;;;;;;;;;;20.90;37.13;102813.69;5049408;28;19921;-91
2022/03/17 09:49:36;;;;;;;;;;;;;;;20.87;36.99;102825.19;5026837;28;19944;-91
2022/03/17 09:52:10;;;;;;;;;;;;;;;20.87;36.86;102829.88;5018754;28;19971;-92
2022/03/17 09:54:35;;;;;;;;;;;;;;;20.85;37.13;102829.31;5016677;28;19938;-92
2022/03/17 09:57:01;;;;;;;;;;;;;;;20.83;36.93;102836.97;5042060;28;19938;-90
2022/03/17 09:59:26;;;;;;;;;;;;;;;20.82;37.03;102843.56;5067494;28;20456;-92
2022/03/17 10:01:51;;;;;;;;;;;;;;;20.80;36.89;102843.00;5043703;28;19927;-92
2022/03/17 10:04:18;;;;;;;;;;;;;;;20.79;37.01;102847.66;5025600;28;20030;-92
2022/03/17 10:06:43;;;;;;;;;;;;;;;20.79;36.98;102849.56;5034612;28;19981;-91
2022/03/17 10:09:08;;;;;;;;;;;;;;;20.78;37.00;102850.66;5051239;28;19978;-90
2022/03/17 10:11:37;;;;;;;;;;;;;;;20.78;37.12;102858.91;5048437;28;19954;-89
2022/03/17 10:14:05;;;;;;;;;;;;;;;20.77;37.05;102865.50;5051633;28;19916;-90
2022/03/17 10:16:33;;;;;;;;;;;;;;;20.77;37.02;102874.56;5053894;28;19935;-89
2022/03/17 10:19:00;;;;;;;;;;;;;;;20.78;37.06;102880.88;5035066;28;19917;-91
2022/03/17 10:21:48;;;;;;;;;;;;;;;20.77;36.97;102880.03;5058117;28;19952;-91
2022/03/17 10:24:18;;;;;;;;;;;;;;;20.78;36.99;102883.63;5046312;28;19946;-90
2022/03/17 10:26:56;;;;;;;;;;;;;;;20.78;37.03;102883.63;5026260;28;19925;-89
2022/03/17 10:29:26;;;;;;;;;;;;;;;20.79;37.14;102893.50;5035954;28;19921;-89
2022/03/17 10:32:00;;;;;;;;;;;;;;;20.79;37.24;102899.00;5032824;28;19998;-89
2022/03/17 10:34:28;;;;;;;;;;;;;;;20.80;37.13;102904.25;5022660;28;19917;-89
2022/03/17 10:37:46;;;;;;;;;;;;;;;20.80;37.09;102898.75;5035659;28;19917;-90
2022/03/17 10:40:42;;;;;;;;;;;;;;;20.82;37.08;102912.22;5014743;28;19934;-91
2022/03/17 10:43:24;;;;;;;;;;;;;;;;;;;;;
2022/03/17 10:46:15;;;;;;;;;;;;;;;20.82;37.38;102926.78;5044705;28;19923;-90
2022/03/17 10:48:56;;;;;;;;;;;;;;;20.83;37.36;102922.13;5011390;28;19921;-87
2022/03/17 10:51:43;;;;;;;;;;;;;;;20.83;37.41;102933.94;5015150;28;19913;-88
2022/03/17 10:54:19;;;;;;;;;;;;;;;20.84;37.18;102934.75;5026371;28;19920;-88
2022/03/17 10:57:08;;;;;;;;;;;;;;;20.85;37.33;102944.66;5033784;28;20010;-89
2022/03/17 11:02:33;;;;;;;;;;;;;;;20.85;37.46;102952.91;5032217;28;19930;-92
2022/03/17 11:05:05;;;;;;;;;;;;;;;20.85;37.35;102961.16;5061551;28;20002;-89
2022/03/17 11:07:37;;;;;;;;;;;;;;;20.84;37.26;102956.72;5028479;28;19917;-89
2022/03/17 11:10:16;;;;;;;;;;;;;;;;;;;;;
2022/03/17 11:13:07;;;;;;;;;;;;;;;;;;;;;
2022/03/17 11:15:41;;;;;;;;;;;;;;;20.85;37.45;102966.66;5037637;28;20341;-89
2022/03/17 11:18:24;;;;;;;;;;;;;;;20.85;37.57;102970.22;5035210;28;19936;-90
2022/03/17 11:21:09;;;;;;;;;;;;;;;20.85;37.35;102977.63;5023238;28;19924;-88
2022/03/17 11:24:04;;;;;;;;;;;;;;;20.85;37.33;102980.38;5021471;28;19972;-89
2022/03/17 11:26:46;;;;;;;;;;;;;;;;;;;;;
2022/03/17 11:29:24;;;;;;;;;;;;;;;;;;;;;
2022/03/17 11:31:58;;;;;;;;;;;;;;;20.85;37.35;102989.44;5044622;28;19947;-90
2022/03/17 11:34:48;;;;;;;;;;;;;;;;;;;;;
2022/03/17 11:37:20;;;;;;;;;;;;;;;20.85;37.50;102986.69;5051646;28;19933;-89
2022/03/17 11:40:03;;;;;;;;;;;;;;;20.85;37.44;102986.69;5031821;28;19913;-88
2022/03/17 11:42:57;;;;;;;;;;;;;;;20.85;37.64;102997.69;5051099;28;19936;-90
2022/03/17 11:45:36;;;;;;;;;;;;;;;;;;;;;
2022/03/17 11:48:12;;;;;;;;;;;;;;;20.86;37.49;103007.56;5060513;28;20364;-89
2022/03/17 11:50:40;;;;;;;;;;;;;;;20.86;37.67;102998.50;5033949;28;19940;-89
2022/03/17 11:53:36;;;;;;;;;;;;;;;;;;;;;
2022/03/17 11:56:04;;;;;;;;;;;;;;;20.87;37.50;103008.44;5033789;28;20362;-89
2022/03/17 11:58:39;;;;;;;;;;;;;;;20.87;37.77;103011.19;5070129;28;20481;-90
2022/03/17 12:01:07;;;;;;;;;;;;;;;20.87;37.70;103008.44;5068100;28;19993;-89
2022/03/17 12:03:40;;;;;;;;;;;;;;;20.86;37.73;103013.06;5038618;28;20394;-90
2022/03/17 12:06:16;;;;;;;;;;;;;;;20.87;37.91;103014.75;5038119;28;19919;-89
2022/03/17 12:08:49;;;;;;;;;;;;;;;20.88;37.64;103021.06;5064008;28;19939;-88
2022/03/17 12:11:24;;;;;;;;;;;;;;;20.86;37.69;103015.81;5036966;28;19974;-88
2022/03/17 12:14:16;;;;;;;;;;;;;;;20.87;37.88;103014.75;5052375;28;19921;-89
2022/03/17 12:16:55;;;;;;;;;;;;;;;20.87;37.59;103014.75;5059457;28;20449;-89
2022/03/17 12:22:37;;;;;;;;;;;;;;;20.88;37.82;103026.56;5045306;28;19921;-89
2022/03/17 12:25:32;;;;;;;;;;;;;;;20.87;37.84;103024.91;5023039;28;20378;-89
2022/03/17 12:28:00;;;;;;;;;;;;;;;20.86;37.98;103029.53;5027397;28;20403;-88
2022/03/17 12:30:35;;;;;;;;;;;;;;;20.87;37.60;103036.72;5049190;28;19986;-90
2022/03/17 12:33:06;;;;;;;;;;;;;;;20.86;37.95;103035.03;5027628;28;19917;-89
2022/03/17 12:35:34;;;;;;;;;;;;;;;20.87;37.85;103036.72;5016547;28;19918;-89
2022/03/17 12:40:56;;;;;;;;;;;;;;;20.87;37.72;103036.72;5037556;28;19935;-89
2022/03/17 12:43:24;;;;;;;;;;;;;;;20.88;37.74;103030.13;5068316;28;20067;-89
2022/03/17 12:48:46;;;;;;;;;;;;;;;20.89;37.96;103033.69;5046996;28;19941;-87
2022/03/17 12:51:21;;;;;;;;;;;;;;;20.88;37.81;103032.88;5021494;28;19925;-88
2022/03/17 12:53:51;;;;;;;;;;;;;;;20.89;37.95;103033.69;5034805;28;19936;-88
2022/03/17 12:56:19;;;;;;;;;;;;;;;20.87;37.76;103033.97;5062015;28;19925;-89
2022/03/17 12:59:01;;;;;;;;;;;;;;;20.88;37.79;103029.31;5048190;28;19939;-91
2022/03/17 13:01:46;;;;;;;;;;;;;;;;;;;;;
2022/03/17 13:04:24;;;;;;;;;;;;;;;;;;;;;
2022/03/17 13:06:54;;;;;;;;;;;;;;;20.87;37.84;103031.22;5052712;28;19917;-83
2022/03/17 13:09:29;;;;;;;;;;;;;;;20.87;37.84;103022.16;5047253;28;19942;-82
2022/03/17 13:14:45;;;;;;;;;;;;;;;20.88;37.88;103029.31;5063622;28;19952;-93
2022/03/17 13:17:10;;;;;;;;;;;;;;;20.88;37.88;103026.56;5068480;28;19916;-82
2022/03/17 13:19:45;;;;;;;;;;;;;;;20.87;37.77;103024.91;5052931;28;20245;-86
2022/03/17 13:22:11;;;;;;;;;;;;;;;20.88;38.22;103027.38;5052932;28;19935;-82
2022/03/17 13:24:36;;;;;;;;;;;;;;;20.88;37.82;103015.56;5065962;28;20005;-83